sensor_id;sensor_type;location;lat;lon;timestamp;pressure;altitude;pressure_sealevel;temperature;humidity
77366;BME280;66430;50.182;11.704;2024-02-04T00:01:16;95194.25;;;9.42;44.82
77366;BME280;66430;50.182;11.704;2024-02-04T00:03:42;95197.87;;;9.06;45.55
77366;BME280;66430;50.182;11.704;2024-02-04T00:06:07;95185.91;;;9.27;45.53
77366;BME280;66430;50.182;11.704;2024-02-04T00:08:33;95198.82;;;9.13;45.32
77366;BME280;66430;50.182;11.704;2024-02-04T00:10:58;95187.22;;;8.97;45.85
77366;BME280;66430;50.182;11.704;2024-02-04T00:13:24;95191.75;;;9.12;45.69
77366;BME280;66430;50.182;11.704;2024-02-04T00:15:49;95188.37;;;9.36;45.87
77366;BME280;66430;50.182;11.704;2024-02-04T00:18:15;95182.14;;;9.21;45.59
77366;BME280;66430;50.182;11.704;2024-02-04T00:20:40;95178.78;;;9.55;44.95
77366;BME280;66430;50.182;11.704;2024-02-04T00:23:06;95178.72;;;9.44;45.00
77366;BME280;66430;50.182;11.704;2024-02-04T00:25:31;95175.10;;;9.54;44.88
77366;BME280;66430;50.182;11.704;2024-02-04T00:27:57;95167.89;;;9.61;44.70
77366;BME280;66430;50.182;11.704;2024-02-04T00:30:23;95173.66;;;9.37;44.62
77366;BME280;66430;50.182;11.704;2024-02-04T00:32:48;95174.00;;;9.32;44.96
77366;BME280;66430;50.182;11.704;2024-02-04T00:35:15;95177.55;;;9.10;45.60
77366;BME280;66430;50.182;11.704;2024-02-04T00:37:39;95170.35;;;8.92;45.97
77366;BME280;66430;50.182;11.704;2024-02-04T00:40:05;95171.36;;;9.16;45.76
77366;BME280;66430;50.182;11.704;2024-02-04T00:42:30;95168.21;;;9.19;46.01
77366;BME280;66430;50.182;11.704;2024-02-04T00:44:55;95171.92;;;8.75;46.54
77366;BME280;66430;50.182;11.704;2024-02-04T00:47:21;95169.09;;;9.47;45.64
77366;BME280;66430;50.182;11.704;2024-02-04T00:49:46;95172.93;;;9.36;45.95
77366;BME280;66430;50.182;11.704;2024-02-04T00:52:12;95170.15;;;9.47;45.60
77366;BME280;66430;50.182;11.704;2024-02-04T00:54:37;95171.55;;;9.18;45.79
77366;BME280;66430;50.182;11.704;2024-02-04T00:57:03;95180.79;;;9.04;45.91
77366;BME280;66430;50.182;11.704;2024-02-04T00:59:29;95177.16;;;8.81;45.85
77366;BME280;66430;50.182;11.704;2024-02-04T01:01:54;95175.15;;;9.40;45.55
77366;BME280;66430;50.182;11.704;2024-02-04T01:04:20;95185.14;;;9.02;45.36
77366;BME280;66430;50.182;11.704;2024-02-04T01:06:50;95185.32;;;9.00;45.89
77366;BME280;66430;50.182;11.704;2024-02-04T01:09:10;95188.47;;;9.30;45.35
77366;BME280;66430;50.182;11.704;2024-02-04T01:11:36;95193.06;;;9.36;45.28
77366;BME280;66430;50.182;11.704;2024-02-04T01:14:01;95189.53;;;9.29;45.41
77366;BME280;66430;50.182;11.704;2024-02-04T01:16:27;95189.55;;;9.23;45.42
77366;BME280;66430;50.182;11.704;2024-02-04T01:18:52;95192.87;;;9.23;45.45
77366;BME280;66430;50.182;11.704;2024-02-04T01:21:18;95191.37;;;9.73;45.04
77366;BME280;66430;50.182;11.704;2024-02-04T01:23:43;95188.59;;;9.10;45.84
77366;BME280;66430;50.182;11.704;2024-02-04T01:26:10;95193.56;;;9.20;46.14
77366;BME280;66430;50.182;11.704;2024-02-04T01:28:34;95184.81;;;9.03;46.04
77366;BME280;66430;50.182;11.704;2024-02-04T01:31:00;95182.31;;;8.75;45.95
77366;BME280;66430;50.182;11.704;2024-02-04T01:33:25;95178.19;;;9.16;45.83
77366;BME280;66430;50.182;11.704;2024-02-04T01:35:51;95181.52;;;9.30;45.82
77366;BME280;66430;50.182;11.704;2024-02-04T01:38:16;95172.82;;;9.12;46.26
77366;BME280;66430;50.182;11.704;2024-02-04T01:40:42;95178.98;;;9.00;45.98
77366;BME280;66430;50.182;11.704;2024-02-04T01:43:07;95173.88;;;9.41;45.12
77366;BME280;66430;50.182;11.704;2024-02-04T01:45:33;95177.34;;;9.17;45.66
77366;BME280;66430;50.182;11.704;2024-02-04T01:47:58;95177.02;;;9.25;45.58
77366;BME280;66430;50.182;11.704;2024-02-04T01:50:25;95184.86;;;9.54;45.27
77366;BME280;66430;50.182;11.704;2024-02-04T01:52:50;95188.36;;;9.36;45.36
77366;BME280;66430;50.182;11.704;2024-02-04T01:55:15;95178.49;;;9.05;45.88
77366;BME280;66430;50.182;11.704;2024-02-04T01:57:41;95183.64;;;9.40;45.29
77366;BME280;66430;50.182;11.704;2024-02-04T02:00:09;95172.82;;;8.95;45.61
77366;BME280;66430;50.182;11.704;2024-02-04T02:02:32;95182.99;;;9.42;45.59
77366;BME280;66430;50.182;11.704;2024-02-04T02:05:02;95182.92;;;9.30;46.10
77366;BME280;66430;50.182;11.704;2024-02-04T02:07:22;95179.36;;;9.12;45.99
77366;BME280;66430;50.182;11.704;2024-02-04T02:09:48;95173.21;;;9.33;45.70
77366;BME280;66430;50.182;11.704;2024-02-04T02:12:16;95179.42;;;9.44;45.74
77366;BME280;66430;50.182;11.704;2024-02-04T02:14:42;95180.73;;;8.64;46.27
77366;BME280;66430;50.182;11.704;2024-02-04T02:17:07;95186.04;;;9.11;46.01
77366;BME280;66430;50.182;11.704;2024-02-04T02:19:39;95187.56;;;9.14;45.99
77366;BME280;66430;50.182;11.704;2024-02-04T02:22:01;95185.06;;;9.52;45.81
77366;BME280;66430;50.182;11.704;2024-02-04T02:24:33;95188.55;;;9.02;46.08
77366;BME280;66430;50.182;11.704;2024-02-04T02:26:48;95181.99;;;9.65;45.61
77366;BME280;66430;50.182;11.704;2024-02-04T02:29:12;95190.21;;;9.49;45.68
77366;BME280;66430;50.182;11.704;2024-02-04T02:31:39;95188.86;;;8.69;46.06
77366;BME280;66430;50.182;11.704;2024-02-04T02:34:03;95200.04;;;9.32;45.86
77366;BME280;66430;50.182;11.704;2024-02-04T02:36:32;95202.43;;;8.70;46.01
77366;BME280;66430;50.182;11.704;2024-02-04T02:39:01;95202.78;;;9.59;45.29
77366;BME280;66430;50.182;11.704;2024-02-04T02:41:21;95208.11;;;9.44;45.03
77366;BME280;66430;50.182;11.704;2024-02-04T02:43:47;95210.03;;;9.56;44.53
77366;BME280;66430;50.182;11.704;2024-02-04T02:46:11;95211.37;;;9.12;45.65
77366;BME280;66430;50.182;11.704;2024-02-04T02:48:36;95199.53;;;9.27;45.38
77366;BME280;66430;50.182;11.704;2024-02-04T02:51:02;95208.32;;;9.26;45.38
77366;BME280;66430;50.182;11.704;2024-02-04T02:53:27;95210.66;;;9.53;45.68
77366;BME280;66430;50.182;11.704;2024-02-04T02:55:53;95206.80;;;9.26;45.56
77366;BME280;66430;50.182;11.704;2024-02-04T02:58:18;95203.53;;;9.18;46.15
77366;BME280;66430;50.182;11.704;2024-02-04T03:00:44;95198.93;;;9.43;45.70
77366;BME280;66430;50.182;11.704;2024-02-04T03:03:09;95197.15;;;9.40;45.82
77366;BME280;66430;50.182;11.704;2024-02-04T03:05:35;95196.97;;;9.33;46.04
77366;BME280;66430;50.182;11.704;2024-02-04T03:08:00;95202.52;;;8.96;46.14
77366;BME280;66430;50.182;11.704;2024-02-04T03:10:31;95194.87;;;8.96;46.23
77366;BME280;66430;50.182;11.704;2024-02-04T03:12:51;95202.99;;;9.30;45.58
77366;BME280;66430;50.182;11.704;2024-02-04T03:15:19;95204.86;;;9.00;46.22
77366;BME280;66430;50.182;11.704;2024-02-04T03:17:43;95193.32;;;8.76;46.66
77366;BME280;66430;50.182;11.704;2024-02-04T03:20:09;95187.47;;;8.99;46.24
77366;BME280;66430;50.182;11.704;2024-02-04T03:22:33;95186.62;;;9.35;45.63
77366;BME280;66430;50.182;11.704;2024-02-04T03:24:59;95191.98;;;9.38;45.31
77366;BME280;66430;50.182;11.704;2024-02-04T03:27:24;95187.96;;;9.29;45.47
77366;BME280;66430;50.182;11.704;2024-02-04T03:29:50;95188.84;;;9.34;45.69
77366;BME280;66430;50.182;11.704;2024-02-04T03:32:16;95184.81;;;9.47;45.61
77366;BME280;66430;50.182;11.704;2024-02-04T03:34:41;95189.06;;;9.47;45.34
77366;BME280;66430;50.182;11.704;2024-02-04T03:37:06;95197.40;;;9.26;46.01
77366;BME280;66430;50.182;11.704;2024-02-04T03:39:32;95182.99;;;9.55;44.94
77366;BME280;66430;50.182;11.704;2024-02-04T03:41:57;95192.67;;;9.78;44.98
77366;BME280;66430;50.182;11.704;2024-02-04T03:44:23;95193.67;;;9.82;45.03
77366;BME280;66430;50.182;11.704;2024-02-04T03:46:49;95186.35;;;9.18;45.18
77366;BME280;66430;50.182;11.704;2024-02-04T03:49:14;95184.07;;;9.30;45.45
77366;BME280;66430;50.182;11.704;2024-02-04T03:51:39;95179.72;;;9.62;44.69
77366;BME280;66430;50.182;11.704;2024-02-04T03:54:05;95186.96;;;9.35;45.28
77366;BME280;66430;50.182;11.704;2024-02-04T03:56:30;95186.92;;;9.22;45.92
77366;BME280;66430;50.182;11.704;2024-02-04T03:58:56;95186.80;;;9.47;45.04
77366;BME280;66430;50.182;11.704;2024-02-04T04:01:21;95183.52;;;9.47;45.07
77366;BME280;66430;50.182;11.704;2024-02-04T04:03:47;95182.56;;;9.61;45.33
77366;BME280;66430;50.182;11.704;2024-02-04T04:06:13;95178.88;;;8.83;46.31
77366;BME280;66430;50.182;11.704;2024-02-04T04:08:38;95166.13;;;9.14;45.76
77366;BME280;66430;50.182;11.704;2024-02-04T04:11:04;95164.09;;;9.46;45.10
77366;BME280;66430;50.182;11.704;2024-02-04T04:13:29;95164.63;;;9.45;44.81
77366;BME280;66430;50.182;11.704;2024-02-04T04:15:55;95169.66;;;9.33;45.25
77366;BME280;66430;50.182;11.704;2024-02-04T04:18:20;95154.19;;;9.53;44.92
77366;BME280;66430;50.182;11.704;2024-02-04T04:20:46;95159.11;;;9.38;45.18
77366;BME280;66430;50.182;11.704;2024-02-04T04:23:12;95159.37;;;9.71;44.83
77366;BME280;66430;50.182;11.704;2024-02-04T04:25:36;95163.05;;;9.22;45.10
77366;BME280;66430;50.182;11.704;2024-02-04T04:28:02;95149.74;;;9.31;45.22
77366;BME280;66430;50.182;11.704;2024-02-04T04:30:27;95154.63;;;9.02;45.45
77366;BME280;66430;50.182;11.704;2024-02-04T04:32:53;95151.17;;;9.49;44.94
77366;BME280;66430;50.182;11.704;2024-02-04T04:35:18;95141.45;;;9.57;44.98
77366;BME280;66430;50.182;11.704;2024-02-04T04:37:44;95141.16;;;9.64;44.72
77366;BME280;66430;50.182;11.704;2024-02-04T04:40:10;95136.72;;;9.61;44.34
77366;BME280;66430;50.182;11.704;2024-02-04T04:42:35;95137.14;;;9.88;44.36
77366;BME280;66430;50.182;11.704;2024-02-04T04:45:00;95142.27;;;9.84;44.43
77366;BME280;66430;50.182;11.704;2024-02-04T04:47:26;95129.20;;;9.52;44.39
77366;BME280;66430;50.182;11.704;2024-02-04T04:49:51;95136.29;;;9.40;44.59
77366;BME280;66430;50.182;11.704;2024-02-04T04:52:17;95133.01;;;9.16;45.00
77366;BME280;66430;50.182;11.704;2024-02-04T04:54:43;95133.94;;;9.16;45.52
77366;BME280;66430;50.182;11.704;2024-02-04T04:57:08;95138.76;;;9.45;44.86
77366;BME280;66430;50.182;11.704;2024-02-04T04:59:33;95148.45;;;8.69;45.89
77366;BME280;66430;50.182;11.704;2024-02-04T05:01:59;95140.67;;;9.09;45.70
77366;BME280;66430;50.182;11.704;2024-02-04T05:04:24;95139.76;;;9.05;45.80
77366;BME280;66430;50.182;11.704;2024-02-04T05:06:50;95140.60;;;9.20;45.96
77366;BME280;66430;50.182;11.704;2024-02-04T05:09:15;95133.94;;;9.43;45.13
77366;BME280;66430;50.182;11.704;2024-02-04T05:11:41;95127.24;;;8.96;45.93
77366;BME280;66430;50.182;11.704;2024-02-04T05:14:07;95132.10;;;9.30;45.37
77366;BME280;66430;50.182;11.704;2024-02-04T05:16:32;95132.04;;;9.29;45.38
77366;BME280;66430;50.182;11.704;2024-02-04T05:19:04;95127.82;;;9.37;44.94
77366;BME280;66430;50.182;11.704;2024-02-04T05:21:25;95128.60;;;9.60;44.51
77366;BME280;66430;50.182;11.704;2024-02-04T05:23:48;95122.95;;;9.73;44.73
77366;BME280;66430;50.182;11.704;2024-02-04T05:26:17;95134.81;;;8.93;45.49
77366;BME280;66430;50.182;11.704;2024-02-04T05:28:39;95124.60;;;9.68;44.59
77366;BME280;66430;50.182;11.704;2024-02-04T05:31:05;95127.25;;;9.27;45.03
77366;BME280;66430;50.182;11.704;2024-02-04T05:33:30;95126.69;;;9.36;44.82
77366;BME280;66430;50.182;11.704;2024-02-04T05:35:56;95131.82;;;9.69;44.22
77366;BME280;66430;50.182;11.704;2024-02-04T05:38:22;95126.06;;;9.49;44.59
77366;BME280;66430;50.182;11.704;2024-02-04T05:40:47;95125.64;;;9.52;44.57
77366;BME280;66430;50.182;11.704;2024-02-04T05:43:13;95124.78;;;9.98;44.21
77366;BME280;66430;50.182;11.704;2024-02-04T05:45:38;95127.10;;;9.22;44.60
77366;BME280;66430;50.182;11.704;2024-02-04T05:48:04;95127.78;;;9.71;43.99
77366;BME280;66430;50.182;11.704;2024-02-04T05:50:35;95128.66;;;9.56;44.19
77366;BME280;66430;50.182;11.704;2024-02-04T05:52:55;95127.24;;;9.46;44.24
77366;BME280;66430;50.182;11.704;2024-02-04T05:55:20;95130.95;;;9.32;44.15
77366;BME280;66430;50.182;11.704;2024-02-04T05:57:46;95136.78;;;9.65;43.63
77366;BME280;66430;50.182;11.704;2024-02-04T06:00:13;95133.24;;;9.70;43.86
77366;BME280;66430;50.182;11.704;2024-02-04T06:02:37;95135.80;;;9.75;43.56
77366;BME280;66430;50.182;11.704;2024-02-04T06:05:02;95121.56;;;9.57;43.93
77366;BME280;66430;50.182;11.704;2024-02-04T06:07:28;95118.29;;;9.77;43.74
77366;BME280;66430;50.182;11.704;2024-02-04T06:09:53;95115.52;;;9.60;43.58
77366;BME280;66430;50.182;11.704;2024-02-04T06:12:19;95110.66;;;9.74;43.60
77366;BME280;66430;50.182;11.704;2024-02-04T06:14:45;95101.31;;;9.16;43.91
77366;BME280;66430;50.182;11.704;2024-02-04T06:17:10;95103.22;;;9.59;43.63
77366;BME280;66430;50.182;11.704;2024-02-04T06:19:35;95108.00;;;9.73;43.90
77366;BME280;66430;50.182;11.704;2024-02-04T06:22:01;95111.30;;;9.09;43.92
77366;BME280;66430;50.182;11.704;2024-02-04T06:24:26;95115.18;;;9.48;43.85
77366;BME280;66430;50.182;11.704;2024-02-04T06:26:51;95110.49;;;9.58;43.44
77366;BME280;66430;50.182;11.704;2024-02-04T06:29:17;95108.78;;;9.33;43.54
77366;BME280;66430;50.182;11.704;2024-02-04T06:31:44;95115.02;;;9.39;43.98
77366;BME280;66430;50.182;11.704;2024-02-04T06:34:08;95117.75;;;9.65;43.82
77366;BME280;66430;50.182;11.704;2024-02-04T06:36:33;95117.17;;;8.99;44.44
77366;BME280;66430;50.182;11.704;2024-02-04T06:38:59;95118.07;;;9.47;43.72
77366;BME280;66430;50.182;11.704;2024-02-04T06:41:24;95107.92;;;9.46;43.64
77366;BME280;66430;50.182;11.704;2024-02-04T06:43:50;95093.83;;;9.61;43.68
77366;BME280;66430;50.182;11.704;2024-02-04T06:46:24;95100.13;;;9.42;43.56
77366;BME280;66430;50.182;11.704;2024-02-04T06:48:41;95103.74;;;9.51;43.51
77366;BME280;66430;50.182;11.704;2024-02-04T06:51:06;95105.49;;;9.51;43.34
77366;BME280;66430;50.182;11.704;2024-02-04T06:53:32;95098.05;;;9.64;43.26
77366;BME280;66430;50.182;11.704;2024-02-04T06:55:57;95101.62;;;9.13;44.27
77366;BME280;66430;50.182;11.704;2024-02-04T06:58:23;95107.96;;;9.34;43.77
77366;BME280;66430;50.182;11.704;2024-02-04T07:00:48;95103.18;;;9.83;43.29
77366;BME280;66430;50.182;11.704;2024-02-04T07:03:14;95098.09;;;9.52;43.33
77366;BME280;66430;50.182;11.704;2024-02-04T07:05:40;95100.22;;;9.75;43.39
77366;BME280;66430;50.182;11.704;2024-02-04T07:08:05;95095.93;;;9.17;43.49
77366;BME280;66430;50.182;11.704;2024-02-04T07:10:30;95110.21;;;9.65;43.68
77366;BME280;66430;50.182;11.704;2024-02-04T07:12:56;95107.43;;;8.92;44.04
77366;BME280;66430;50.182;11.704;2024-02-04T07:15:21;95104.63;;;9.11;44.12
77366;BME280;66430;50.182;11.704;2024-02-04T07:17:47;95094.48;;;9.17;44.48
77366;BME280;66430;50.182;11.704;2024-02-04T07:20:13;95082.23;;;9.11;44.56
77366;BME280;66430;50.182;11.704;2024-02-04T07:22:38;95076.10;;;9.11;44.04
77366;BME280;66430;50.182;11.704;2024-02-04T07:25:05;95074.05;;;8.81;44.58
77366;BME280;66430;50.182;11.704;2024-02-04T07:27:29;95069.08;;;8.92;44.72
77366;BME280;66430;50.182;11.704;2024-02-04T07:29:54;95065.39;;;8.80;44.53
77366;BME280;66430;50.182;11.704;2024-02-04T07:32:20;95071.98;;;9.36;44.03
77366;BME280;66430;50.182;11.704;2024-02-04T07:34:46;95075.79;;;8.77;45.26
77366;BME280;66430;50.182;11.704;2024-02-04T07:37:11;95068.39;;;8.69;45.25
77366;BME280;66430;50.182;11.704;2024-02-04T07:39:37;95076.47;;;9.04;44.75
77366;BME280;66430;50.182;11.704;2024-02-04T07:42:02;95077.56;;;8.73;44.61
77366;BME280;66430;50.182;11.704;2024-02-04T07:44:29;95077.97;;;9.25;44.22
77366;BME280;66430;50.182;11.704;2024-02-04T07:46:53;95075.62;;;9.49;43.88
77366;BME280;66430;50.182;11.704;2024-02-04T07:49:19;95078.66;;;9.05;44.54
77366;BME280;66430;50.182;11.704;2024-02-04T07:51:44;95069.40;;;9.40;43.94
77366;BME280;66430;50.182;11.704;2024-02-04T07:54:10;95077.54;;;9.69;43.50
77366;BME280;66430;50.182;11.704;2024-02-04T07:56:35;95076.26;;;9.50;43.67
77366;BME280;66430;50.182;11.704;2024-02-04T07:59:01;95074.06;;;9.29;44.00
77366;BME280;66430;50.182;11.704;2024-02-04T08:01:27;95090.28;;;9.27;43.81
77366;BME280;66430;50.182;11.704;2024-02-04T08:03:52;95095.15;;;8.67;44.55
77366;BME280;66430;50.182;11.704;2024-02-04T08:06:17;95101.25;;;9.38;43.75
77366;BME280;66430;50.182;11.704;2024-02-04T08:08:42;95108.61;;;8.80;44.54
77366;BME280;66430;50.182;11.704;2024-02-04T08:11:08;95106.47;;;9.19;44.44
77366;BME280;66430;50.182;11.704;2024-02-04T08:13:33;95084.10;;;9.40;44.30
77366;BME280;66430;50.182;11.704;2024-02-04T08:15:59;95077.53;;;9.32;43.95
77366;BME280;66430;50.182;11.704;2024-02-04T08:18:25;95089.60;;;9.20;44.14
77366;BME280;66430;50.182;11.704;2024-02-04T08:20:50;95079.73;;;9.08;44.57
77366;BME280;66430;50.182;11.704;2024-02-04T08:23:16;95068.15;;;9.45;44.07
77366;BME280;66430;50.182;11.704;2024-02-04T08:25:41;95065.65;;;9.77;43.40
77366;BME280;66430;50.182;11.704;2024-02-04T08:28:06;95065.74;;;9.05;44.08
77366;BME280;66430;50.182;11.704;2024-02-04T08:30:32;95073.70;;;9.08;44.38
77366;BME280;66430;50.182;11.704;2024-02-04T08:32:58;95072.81;;;9.33;44.36
77366;BME280;66430;50.182;11.704;2024-02-04T08:35:25;95059.52;;;9.22;44.58
77366;BME280;66430;50.182;11.704;2024-02-04T08:37:48;95069.99;;;9.11;44.50
77366;BME280;66430;50.182;11.704;2024-02-04T08:40:14;95062.56;;;9.66;43.84
77366;BME280;66430;50.182;11.704;2024-02-04T08:42:39;95064.56;;;9.09;44.72
77366;BME280;66430;50.182;11.704;2024-02-04T08:45:08;95078.73;;;8.91;45.21
77366;BME280;66430;50.182;11.704;2024-02-04T08:47:31;95076.02;;;8.83;45.34
77366;BME280;66430;50.182;11.704;2024-02-04T08:49:56;95073.87;;;8.63;45.52
77366;BME280;66430;50.182;11.704;2024-02-04T08:52:21;95073.58;;;8.87;45.19
77366;BME280;66430;50.182;11.704;2024-02-04T08:54:47;95076.95;;;9.06;45.28
77366;BME280;66430;50.182;11.704;2024-02-04T08:57:13;95082.78;;;8.62;45.91
77366;BME280;66430;50.182;11.704;2024-02-04T08:59:38;95077.74;;;9.08;45.23
77366;BME280;66430;50.182;11.704;2024-02-04T09:02:04;95071.67;;;9.39;44.77
77366;BME280;66430;50.182;11.704;2024-02-04T09:04:29;95061.15;;;9.11;44.86
77366;BME280;66430;50.182;11.704;2024-02-04T09:07:00;95075.21;;;9.04;44.92
77366;BME280;66430;50.182;11.704;2024-02-04T09:09:20;95081.00;;;9.08;45.32
77366;BME280;66430;50.182;11.704;2024-02-04T09:11:46;95063.94;;;9.11;45.25
77366;BME280;66430;50.182;11.704;2024-02-04T09:14:11;95073.38;;;9.15;44.83
77366;BME280;66430;50.182;11.704;2024-02-04T09:16:38;95065.39;;;9.42;44.45
77366;BME280;66430;50.182;11.704;2024-02-04T09:19:02;95063.72;;;9.02;45.10
77366;BME280;66430;50.182;11.704;2024-02-04T09:21:28;95059.03;;;9.15;45.05
77366;BME280;66430;50.182;11.704;2024-02-04T09:23:54;95062.09;;;9.20;44.85
77366;BME280;66430;50.182;11.704;2024-02-04T09:26:19;95070.66;;;9.53;44.36
77366;BME280;66430;50.182;11.704;2024-02-04T09:28:44;95069.17;;;9.96;44.13
77366;BME280;66430;50.182;11.704;2024-02-04T09:31:11;95054.56;;;9.27;45.33
77366;BME280;66430;50.182;11.704;2024-02-04T09:33:36;95057.61;;;9.55;44.87
77366;BME280;66430;50.182;11.704;2024-02-04T09:36:01;95069.70;;;9.47;44.44
77366;BME280;66430;50.182;11.704;2024-02-04T09:38:28;95061.22;;;8.95;45.45
77366;BME280;66430;50.182;11.704;2024-02-04T09:40:52;95068.45;;;8.82;46.00
77366;BME280;66430;50.182;11.704;2024-02-04T09:43:17;95063.37;;;9.49;45.19
77366;BME280;66430;50.182;11.704;2024-02-04T09:45:43;95071.50;;;9.56;44.66
77366;BME280;66430;50.182;11.704;2024-02-04T09:48:10;95068.63;;;9.40;44.85
77366;BME280;66430;50.182;11.704;2024-02-04T09:50:34;95073.01;;;9.18;44.78
77366;BME280;66430;50.182;11.704;2024-02-04T09:53:00;95072.34;;;9.35;44.97
77366;BME280;66430;50.182;11.704;2024-02-04T09:55:25;95063.68;;;9.90;44.28
77366;BME280;66430;50.182;11.704;2024-02-04T09:57:50;95066.25;;;9.99;43.90
77366;BME280;66430;50.182;11.704;2024-02-04T10:00:19;95066.58;;;9.23;44.77
77366;BME280;66430;50.182;11.704;2024-02-04T10:02:42;95072.38;;;9.62;44.86
77366;BME280;66430;50.182;11.704;2024-02-04T10:05:07;95069.34;;;9.52;44.88
77366;BME280;66430;50.182;11.704;2024-02-04T10:07:32;95065.57;;;9.60;44.94
77366;BME280;66430;50.182;11.704;2024-02-04T10:09:58;95068.14;;;9.12;45.08
77366;BME280;66430;50.182;11.704;2024-02-04T10:12:23;95061.74;;;9.23;45.48
77366;BME280;66430;50.182;11.704;2024-02-04T10:14:49;95067.54;;;9.33;44.88
77366;BME280;66430;50.182;11.704;2024-02-04T10:17:15;95070.43;;;9.95;44.35
77366;BME280;66430;50.182;11.704;2024-02-04T10:19:40;95059.90;;;9.51;44.83
77366;BME280;66430;50.182;11.704;2024-02-04T10:22:05;95064.01;;;9.55;44.95
77366;BME280;66430;50.182;11.704;2024-02-04T10:24:31;95068.80;;;10.22;44.26
77366;BME280;66430;50.182;11.704;2024-02-04T10:26:57;95066.40;;;9.88;44.27
77366;BME280;66430;50.182;11.704;2024-02-04T10:29:22;95056.56;;;9.16;44.91
77366;BME280;66430;50.182;11.704;2024-02-04T10:31:47;95056.88;;;9.79;44.36
77366;BME280;66430;50.182;11.704;2024-02-04T10:34:14;95046.71;;;9.66;44.46
77366;BME280;66430;50.182;11.704;2024-02-04T10:36:39;95045.82;;;9.68;44.35
77366;BME280;66430;50.182;11.704;2024-02-04T10:39:04;95048.92;;;9.65;44.31
77366;BME280;66430;50.182;11.704;2024-02-04T10:41:29;95043.01;;;9.63;44.32
77366;BME280;66430;50.182;11.704;2024-02-04T10:43:56;95055.71;;;9.97;43.91
77366;BME280;66430;50.182;11.704;2024-02-04T10:46:22;95049.57;;;9.81;44.01
77366;BME280;66430;50.182;11.704;2024-02-04T10:49:05;95050.91;;;9.33;44.12
77366;BME280;66430;50.182;11.704;2024-02-04T10:51:14;95051.01;;;8.57;43.38
77366;BME280;66430;50.182;11.704;2024-02-04T10:53:37;95042.93;;;10.41;41.88
77366;BME280;66430;50.182;11.704;2024-02-04T10:56:04;95048.56;;;10.46;42.27
77366;BME280;66430;50.182;11.704;2024-02-04T10:58:28;95033.66;;;10.13;42.80
77366;BME280;66430;50.182;11.704;2024-02-04T11:00:53;95031.53;;;9.96;43.05
77366;BME280;66430;50.182;11.704;2024-02-04T11:03:19;95026.80;;;9.55;43.80
77366;BME280;66430;50.182;11.704;2024-02-04T11:05:47;95019.33;;;9.88;43.15
77366;BME280;66430;50.182;11.704;2024-02-04T11:08:12;95011.08;;;9.64;43.90
77366;BME280;66430;50.182;11.704;2024-02-04T11:10:36;95006.60;;;9.45;43.89
77366;BME280;66430;50.182;11.704;2024-02-04T11:13:08;95008.77;;;9.69;43.89
77366;BME280;66430;50.182;11.704;2024-02-04T11:15:32;95005.19;;;9.19;44.19
77366;BME280;66430;50.182;11.704;2024-02-04T11:20:30;94988.51;;;9.35;44.02
77366;BME280;66430;50.182;11.704;2024-02-04T11:22:55;94988.15;;;9.14;44.21
77366;BME280;66430;50.182;11.704;2024-02-04T11:27:34;94968.96;;;9.78;43.82
77366;BME280;66430;50.182;11.704;2024-02-04T11:30:00;94963.52;;;9.39;44.15
77366;BME280;66430;50.182;11.704;2024-02-04T11:32:25;94947.37;;;9.83;43.69
77366;BME280;66430;50.182;11.704;2024-02-04T11:34:50;94939.17;;;9.57;44.47
77366;BME280;66430;50.182;11.704;2024-02-04T11:37:18;94942.06;;;9.43;44.35
77366;BME280;66430;50.182;11.704;2024-02-04T11:39:50;94943.38;;;9.17;44.46
77366;BME280;66430;50.182;11.704;2024-02-04T11:42:14;94947.66;;;9.67;44.10
77366;BME280;66430;50.182;11.704;2024-02-04T11:44:32;94929.79;;;9.50;43.97
77366;BME280;66430;50.182;11.704;2024-02-04T11:46:59;94927.57;;;9.46;44.26
77366;BME280;66430;50.182;11.704;2024-02-04T11:49:25;94929.79;;;9.67;44.10
77366;BME280;66430;50.182;11.704;2024-02-04T11:51:51;94923.87;;;9.75;44.09
77366;BME280;66430;50.182;11.704;2024-02-04T11:54:16;94918.55;;;9.68;44.24
77366;BME280;66430;50.182;11.704;2024-02-04T11:56:40;94926.68;;;9.14;45.08
77366;BME280;66430;50.182;11.704;2024-02-04T11:59:07;94916.01;;;9.17;45.11
77366;BME280;66430;50.182;11.704;2024-02-04T12:01:31;94928.36;;;9.09;45.38
77366;BME280;66430;50.182;11.704;2024-02-04T12:03:57;94921.92;;;9.19;45.03
77366;BME280;66430;50.182;11.704;2024-02-04T12:06:22;94909.71;;;9.32;44.82
77366;BME280;66430;50.182;11.704;2024-02-04T12:08:47;94922.26;;;9.29;44.81
77366;BME280;66430;50.182;11.704;2024-02-04T12:11:13;94925.38;;;9.66;44.71
77366;BME280;66430;50.182;11.704;2024-02-04T12:13:39;94925.97;;;9.31;44.58
77366;BME280;66430;50.182;11.704;2024-02-04T12:16:05;94935.25;;;9.81;44.42
77366;BME280;66430;50.182;11.704;2024-02-04T12:18:30;94930.92;;;9.68;44.04
77366;BME280;66430;50.182;11.704;2024-02-04T12:20:55;94918.33;;;9.44;44.20
77366;BME280;66430;50.182;11.704;2024-02-04T12:23:21;94919.42;;;9.62;44.17
77366;BME280;66430;50.182;11.704;2024-02-04T12:25:48;94918.79;;;9.45;44.56
77366;BME280;66430;50.182;11.704;2024-02-04T12:28:14;94908.72;;;9.50;44.43
77366;BME280;66430;50.182;11.704;2024-02-04T12:30:39;94910.95;;;9.43;44.56
77366;BME280;66430;50.182;11.704;2024-02-04T12:33:05;94911.65;;;9.33;44.81
77366;BME280;66430;50.182;11.704;2024-02-04T12:35:33;94911.03;;;9.49;45.16
77366;BME280;66430;50.182;11.704;2024-02-04T12:37:54;94913.83;;;9.65;44.85
77366;BME280;66430;50.182;11.704;2024-02-04T12:40:22;94906.13;;;9.06;45.30
77366;BME280;66430;50.182;11.704;2024-02-04T12:42:44;94906.67;;;9.47;44.77
77366;BME280;66430;50.182;11.704;2024-02-04T12:45:10;94904.46;;;9.59;44.58
77366;BME280;66430;50.182;11.704;2024-02-04T12:47:35;94901.90;;;9.23;45.15
77366;BME280;66430;50.182;11.704;2024-02-04T12:50:01;94907.22;;;9.63;45.03
77366;BME280;66430;50.182;11.704;2024-02-04T12:52:28;94904.63;;;9.40;45.01
77366;BME280;66430;50.182;11.704;2024-02-04T12:54:52;94905.43;;;9.39;44.88